Time;durP1;ratioP1;P1;durP2;ratioP2;P2;SDS_P1;SDS_P2;PMS_P1;PMS_P2;Temp;Humidity;BMP_temperature;BMP_pressure;BME280_temperature;BME280_humidity;BME280_pressure;Samples;Min_cycle;Max_cycle;Signal;HPM_P1;HPM_P2
2023/10/25 00:00:14;;;;;;;7.47;3.43;;;10.20;86.50;;;;;;5008298;28;20046;-83
2023/10/25 00:02:41;;;;;;;9.75;3.47;;;10.20;86.50;;;;;;4992824;28;20278;-83
2023/10/25 00:05:08;;;;;;;9.32;3.53;;;10.20;86.50;;;;;;4991721;28;20764;-83
2023/10/25 00:07:35;;;;;;;7.25;3.58;;;10.20;86.30;;;;;;5008030;28;20133;-83
2023/10/25 00:10:04;;;;;;;8.77;3.58;;;10.20;86.30;;;;;;5007855;28;20065;-83
2023/10/25 00:12:32;;;;;;;7.13;2.90;;;10.10;86.40;;;;;;5006673;28;20052;-83
2023/10/25 00:14:59;;;;;;;9.02;3.50;;;10.10;86.40;;;;;;5008079;28;20364;-83
2023/10/25 00:17:26;;;;;;;7.38;3.15;;;10.10;86.30;;;;;;4991223;28;20065;-83
2023/10/25 00:19:53;;;;;;;7.28;3.13;;;10.10;86.30;;;;;;4991664;28;20520;-83
2023/10/25 00:22:20;;;;;;;8.10;2.90;;;10.10;86.30;;;;;;4992506;28;20150;-84
2023/10/25 00:24:47;;;;;;;8.43;3.50;;;10.10;86.30;;;;;;4992826;28;20576;-84
2023/10/25 00:27:15;;;;;;;9.73;3.50;;;10.10;86.30;;;;;;4992661;28;20270;-83
2023/10/25 00:29:43;;;;;;;7.45;3.08;;;10.10;86.20;;;;;;5007891;28;20161;-83
2023/10/25 00:32:14;;;;;;;6.60;2.97;;;10.00;86.20;;;;;;5008427;28;20180;-84
2023/10/25 00:34:41;;;;;;;8.15;3.00;;;10.00;86.20;;;;;;4992396;28;20406;-84
2023/10/25 00:37:09;;;;;;;9.00;3.30;;;10.00;86.30;;;;;;5008965;28;20050;-83
2023/10/25 00:39:37;;;;;;;8.35;3.25;;;10.00;86.20;;;;;;4991831;28;20250;-84
2023/10/25 00:42:05;;;;;;;9.05;3.22;;;10.00;86.20;;;;;;4992089;28;20057;-83
2023/10/25 00:44:33;;;;;;;9.32;3.00;;;10.00;86.20;;;;;;4992079;28;20133;-83
2023/10/25 00:47:02;;;;;;;6.95;2.80;;;10.00;86.10;;;;;;4991457;28;20055;-84
2023/10/25 00:49:29;;;;;;;8.17;3.13;;;10.00;86.10;;;;;;5008792;28;20058;-84
2023/10/25 00:51:56;;;;;;;7.13;2.90;;;10.00;86.10;;;;;;5008151;28;20274;-84
2023/10/25 00:54:24;;;;;;;6.82;2.92;;;9.90;86.00;;;;;;5008096;28;20145;-83
2023/10/25 00:56:51;;;;;;;5.90;2.83;;;9.90;86.00;;;;;;5008103;28;20046;-84
2023/10/25 00:59:20;;;;;;;8.52;3.20;;;9.80;86.10;;;;;;5008095;28;20103;-84
2023/10/25 01:01:50;;;;;;;8.67;2.93;;;9.80;86.10;;;;;;4991939;28;20050;-84
2023/10/25 01:04:17;;;;;;;9.18;3.40;;;9.80;86.10;;;;;;5007007;28;20246;-83
2023/10/25 01:06:45;;;;;;;7.88;3.03;;;9.80;86.20;;;;;;4991918;28;20057;-83
2023/10/25 01:09:13;;;;;;;8.60;3.08;;;9.80;86.20;;;;;;4991480;28;20057;-83
2023/10/25 01:11:41;;;;;;;10.80;3.65;;;9.70;86.20;;;;;;4991955;28;20046;-84
2023/10/25 01:14:08;;;;;;;12.33;3.87;;;9.70;86.30;;;;;;4991813;28;20050;-84
2023/10/25 01:16:35;;;;;;;7.63;3.00;;;9.70;86.30;;;;;;5008207;28;20296;-84
2023/10/25 01:19:04;;;;;;;10.55;3.40;;;9.70;86.30;;;;;;5008012;28;20106;-84
2023/10/25 01:21:32;;;;;;;8.27;3.25;;;9.70;86.30;;;;;;5004205;28;20852;-83
2023/10/25 01:24:00;;;;;;;8.25;3.25;;;9.70;86.30;;;;;;4974893;28;20054;-84
2023/10/25 01:26:27;;;;;;;9.63;3.17;;;9.70;86.40;;;;;;4991680;28;20051;-84
2023/10/25 01:28:54;;;;;;;8.40;3.25;;;9.60;86.40;;;;;;5007372;28;20776;-84
2023/10/25 01:31:21;;;;;;;8.73;3.38;;;9.60;86.40;;;;;;5008251;28;20557;-83
2023/10/25 01:33:51;;;;;;;9.48;2.97;;;9.60;86.50;;;;;;5010272;28;20862;-83
2023/10/25 01:36:42;;;;;;;8.50;3.22;;;9.60;86.40;;;;;;4996256;28;20042;-84
2023/10/25 01:39:11;;;;;;;7.83;3.40;;;9.60;86.50;;;;;;4990165;28;20145;-83
2023/10/25 01:41:39;;;;;;;8.80;3.05;;;9.60;86.50;;;;;;5007660;28;21198;-84
2023/10/25 01:44:06;;;;;;;6.43;2.90;;;9.60;86.50;;;;;;5007864;28;20064;-83
2023/10/25 01:46:33;;;;;;;7.07;3.08;;;9.60;86.50;;;;;;5008173;28;20817;-84
2023/10/25 01:49:00;;;;;;;8.98;3.38;;;9.50;86.60;;;;;;5007498;28;20603;-83
2023/10/25 01:51:27;;;;;;;7.73;3.00;;;9.50;86.70;;;;;;5007519;28;20892;-83
2023/10/25 01:53:55;;;;;;;9.57;3.67;;;9.50;86.70;;;;;;5007645;28;20257;-83
2023/10/25 01:56:24;;;;;;;8.55;3.42;;;9.50;86.70;;;;;;5006833;28;20149;-83
2023/10/25 01:58:51;;;;;;;9.02;3.65;;;9.50;86.80;;;;;;4991154;28;20544;-83
2023/10/25 02:01:18;;;;;;;9.77;3.65;;;9.50;86.80;;;;;;5009228;28;20177;-83
2023/10/25 02:03:45;;;;;;;8.20;3.20;;;9.50;86.80;;;;;;5007547;28;20054;-83
2023/10/25 02:06:14;;;;;;;9.13;3.53;;;9.50;86.80;;;;;;5007297;28;20735;-84
2023/10/25 02:08:41;;;;;;;7.18;3.30;;;9.50;86.80;;;;;;4990753;28;20046;-84
2023/10/25 02:11:09;;;;;;;11.00;4.10;;;9.50;86.80;;;;;;5007338;28;20160;-83
2023/10/25 02:13:37;;;;;;;11.20;3.80;;;9.50;86.80;;;;;;4991098;28;20061;-83
2023/10/25 02:16:13;;;;;;;7.33;3.53;;;9.50;86.80;;;;;;4989843;28;20054;-83
2023/10/25 02:18:40;;;;;;;9.10;4.07;;;9.50;86.90;;;;;;4990651;28;20257;-84
2023/10/25 02:21:08;;;;;;;10.27;3.97;;;9.40;86.80;;;;;;4991066;28;20161;-83
2023/10/25 02:23:35;;;;;;;10.88;4.63;;;9.50;86.80;;;;;;5007083;28;20061;-83
2023/10/25 02:26:02;;;;;;;9.43;4.00;;;9.40;86.80;;;;;;5007184;28;20202;-83
2023/10/25 02:28:29;;;;;;;11.60;4.40;;;9.40;86.80;;;;;;5006857;28;20436;-83
2023/10/25 02:30:57;;;;;;;9.57;4.15;;;9.40;86.80;;;;;;5007032;28;20361;-83
2023/10/25 02:33:24;;;;;;;8.48;3.90;;;9.40;86.90;;;;;;5006132;28;20050;-83
2023/10/25 02:35:53;;;;;;;9.75;4.47;;;9.40;87.00;;;;;;5006930;28;20137;-84
2023/10/25 02:38:21;;;;;;;8.35;4.20;;;9.40;87.00;;;;;;5006985;28;20047;-83
2023/10/25 02:40:48;;;;;;;9.70;4.20;;;9.40;87.00;;;;;;5003681;28;20287;-83
2023/10/25 02:43:15;;;;;;;8.85;4.47;;;9.40;87.00;;;;;;4971194;28;20289;-84
2023/10/25 02:45:42;;;;;;;9.95;4.90;;;9.40;87.10;;;;;;5003486;28;20046;-83
2023/10/25 02:48:13;;;;;;;9.75;4.72;;;9.40;87.10;;;;;;5020227;28;20057;-83
2023/10/25 02:50:40;;;;;;;10.05;4.13;;;9.40;87.10;;;;;;5024775;28;20093;-83
2023/10/25 02:53:07;;;;;;;10.53;4.17;;;9.40;87.20;;;;;;4993555;28;20165;-83
2023/10/25 02:55:35;;;;;;;11.43;4.57;;;9.40;87.10;;;;;;5010236;28;20286;-83
2023/10/25 02:58:02;;;;;;;9.52;4.40;;;9.40;87.10;;;;;;5010250;28;20050;-83
2023/10/25 03:00:29;;;;;;;11.18;4.70;;;9.40;87.10;;;;;;4993188;28;20145;-83
2023/10/25 03:02:56;;;;;;;7.40;3.47;;;9.30;87.10;;;;;;5010092;28;20062;-83
2023/10/25 03:05:25;;;;;;;11.90;4.30;;;9.30;87.10;;;;;;5010081;28;20170;-83
2023/10/25 03:07:52;;;;;;;8.27;3.72;;;9.30;87.20;;;;;;5009071;28;20293;-83
2023/10/25 03:10:20;;;;;;;7.95;3.78;;;9.20;87.20;;;;;;5009511;28;20055;-84
2023/10/25 03:12:47;;;;;;;8.80;4.32;;;9.30;87.20;;;;;;5009603;28;20054;-83
2023/10/25 03:15:16;;;;;;;8.60;4.20;;;9.20;87.30;;;;;;5009932;28;20141;-83
2023/10/25 03:17:43;;;;;;;7.70;4.20;;;9.20;87.20;;;;;;5021829;28;20050;-83
2023/10/25 03:20:11;;;;;;;9.18;4.00;;;9.20;87.20;;;;;;4988418;28;20292;-82
2023/10/25 03:22:40;;;;;;;9.30;4.80;;;9.20;87.20;;;;;;5005547;28;20101;-83
2023/10/25 03:25:08;;;;;;;10.77;3.97;;;9.20;87.20;;;;;;5007787;28;20141;-82
2023/10/25 03:27:35;;;;;;;9.63;3.80;;;9.20;87.30;;;;;;4992142;28;20042;-83
2023/10/25 03:30:02;;;;;;;7.77;4.20;;;9.20;87.30;;;;;;4992713;28;20058;-83
2023/10/25 03:32:29;;;;;;;8.10;3.83;;;9.20;87.30;;;;;;4993218;28;20274;-83
2023/10/25 03:34:57;;;;;;;7.18;3.80;;;9.20;87.40;;;;;;5002176;28;20151;-83
2023/10/25 03:37:24;;;;;;;9.05;4.15;;;9.20;87.50;;;;;;5009432;28;20051;-82
2023/10/25 03:39:52;;;;;;;9.02;4.53;;;9.20;87.40;;;;;;5009288;28;20498;-83
2023/10/25 03:42:19;;;;;;;11.30;4.37;;;9.20;87.40;;;;;;5008612;28;20148;-83
2023/10/25 03:44:49;;;;;;;8.57;4.00;;;9.20;87.50;;;;;;4993081;28;20369;-84
2023/10/25 03:47:16;;;;;;;7.85;3.70;;;9.20;87.50;;;;;;5009427;28;20058;-83
2023/10/25 03:49:43;;;;;;;10.55;4.30;;;9.20;87.50;;;;;;5009469;28;20136;-83
2023/10/25 03:52:11;;;;;;;9.13;3.88;;;9.20;87.50;;;;;;4992955;28;20089;-83
2023/10/25 03:54:38;;;;;;;9.50;4.60;;;9.10;87.50;;;;;;4992826;28;20082;-83
2023/10/25 03:57:08;;;;;;;7.93;4.32;;;9.10;87.50;;;;;;5009175;28;20751;-83
2023/10/25 03:59:35;;;;;;;8.73;4.28;;;9.10;87.50;;;;;;5008761;28;20169;-83
2023/10/25 04:02:02;;;;;;;10.50;4.65;;;9.10;87.60;;;;;;4989868;28;20117;-83
2023/10/25 04:04:29;;;;;;;10.55;4.60;;;9.10;87.50;;;;;;4973211;28;20055;-83
2023/10/25 04:06:57;;;;;;;11.23;3.93;;;9.10;87.50;;;;;;4989365;28;20227;-83
2023/10/25 04:09:24;;;;;;;8.75;4.20;;;9.10;87.60;;;;;;4980804;28;20274;-83
2023/10/25 04:11:51;;;;;;;8.98;3.95;;;9.10;87.60;;;;;;4992703;28;20416;-83
2023/10/25 04:14:19;;;;;;;9.48;4.07;;;9.00;87.60;;;;;;4992849;28;20145;-83
2023/10/25 04:16:46;;;;;;;9.23;4.10;;;9.10;87.50;;;;;;5008934;28;20058;-83
2023/10/25 04:19:14;;;;;;;10.87;3.83;;;9.00;87.50;;;;;;5001064;28;20055;-83
2023/10/25 04:21:41;;;;;;;10.38;4.43;;;9.00;87.50;;;;;;4989258;28;20274;-83
2023/10/25 04:24:08;;;;;;;8.52;3.90;;;9.00;87.60;;;;;;4989401;28;20062;-83
2023/10/25 04:26:36;;;;;;;11.43;4.20;;;9.00;87.50;;;;;;4989066;28;20773;-83
2023/10/25 04:29:03;;;;;;;8.05;3.80;;;9.00;87.50;;;;;;5001334;28;20051;-83
2023/10/25 04:31:31;;;;;;;7.53;3.93;;;9.00;87.60;;;;;;4988870;28;20112;-83
2023/10/25 04:33:59;;;;;;;7.60;3.60;;;9.00;87.60;;;;;;4988943;28;20267;-83
2023/10/25 04:36:26;;;;;;;7.97;3.60;;;9.00;87.60;;;;;;4985652;28;20061;-83
2023/10/25 04:38:53;;;;;;;8.77;4.00;;;9.00;87.60;;;;;;5008624;28;20487;-83
2023/10/25 04:41:20;;;;;;;9.77;3.80;;;9.00;87.50;;;;;;5008667;28;20076;-83
2023/10/25 04:43:48;;;;;;;8.33;4.00;;;9.00;87.50;;;;;;5008852;28;20555;-83
2023/10/25 04:46:16;;;;;;;9.48;3.85;;;9.00;87.60;;;;;;4992876;28;20250;-83
2023/10/25 04:48:44;;;;;;;10.45;3.67;;;9.00;87.60;;;;;;5007280;28;20055;-83
2023/10/25 04:51:13;;;;;;;8.10;4.00;;;9.00;87.50;;;;;;5007242;28;20056;-83
2023/10/25 04:53:41;;;;;;;8.52;3.50;;;8.90;87.50;;;;;;5006206;28;20054;-83
2023/10/25 04:56:08;;;;;;;7.27;3.70;;;8.90;87.50;;;;;;4994409;28;20057;-84
2023/10/25 04:58:35;;;;;;;13.68;4.20;;;8.90;87.60;;;;;;5006387;28;20760;-83
2023/10/25 05:01:11;;;;;;;6.60;3.35;;;8.90;87.60;;;;;;5007257;28;20477;-83
2023/10/25 05:03:38;;;;;;;7.40;3.47;;;8.90;87.50;;;;;;5007916;28;20105;-84
2023/10/25 05:06:08;;;;;;;8.15;3.70;;;8.90;87.60;;;;;;5007426;28;20528;-84
2023/10/25 05:08:35;;;;;;;8.67;3.47;;;8.90;87.50;;;;;;5007985;28;20058;-84
2023/10/25 05:11:05;;;;;;;8.68;4.40;;;8.90;87.50;;;;;;5006962;28;20285;-83
2023/10/25 05:13:33;;;;;;;7.75;3.58;;;8.90;87.50;;;;;;5007516;28;20050;-82
2023/10/25 05:16:01;;;;;;;8.32;3.58;;;8.80;87.50;;;;;;5008212;28;20089;-83
2023/10/25 05:18:29;;;;;;;6.80;3.33;;;8.80;87.50;;;;;;5008097;28;20070;-84
2023/10/25 05:20:59;;;;;;;8.83;3.37;;;8.80;87.60;;;;;;5007996;28;20065;-83
2023/10/25 05:23:31;;;;;;;7.60;3.30;;;8.80;87.50;;;;;;5007871;28;20305;-84
2023/10/25 05:25:59;;;;;;;9.13;4.03;;;8.80;87.50;;;;;;5007959;28;20049;-82
2023/10/25 05:28:27;;;;;;;7.18;3.50;;;8.80;87.50;;;;;;5007050;28;20129;-83
2023/10/25 05:30:55;;;;;;;7.93;3.33;;;8.80;87.50;;;;;;5008028;28;20061;-83
2023/10/25 05:33:24;;;;;;;9.13;3.70;;;8.70;87.40;;;;;;4991592;28;20664;-83
2023/10/25 05:35:52;;;;;;;8.90;3.30;;;8.60;87.50;;;;;;4991385;28;20687;-83
2023/10/25 05:38:19;;;;;;;6.90;3.28;;;8.70;87.40;;;;;;4991277;28;20059;-83
2023/10/25 05:40:50;;;;;;;7.75;3.50;;;8.60;87.50;;;;;;4971794;28;20057;-83
2023/10/25 05:43:23;;;;;;;7.40;3.58;;;8.60;87.40;;;;;;4972097;28;20150;-83
2023/10/25 05:45:50;;;;;;;8.60;3.87;;;8.60;87.40;;;;;;4976583;28;20058;-83
2023/10/25 05:48:18;;;;;;;8.32;3.10;;;8.60;87.50;;;;;;4988280;28;20338;-83
2023/10/25 05:50:49;;;;;;;9.20;3.97;;;8.60;87.50;;;;;;4988138;28;20067;-83
2023/10/25 05:53:18;;;;;;;10.48;4.00;;;8.50;87.50;;;;;;4991342;28;20054;-83
2023/10/25 05:55:48;;;;;;;9.52;3.10;;;8.50;87.50;;;;;;4991564;28;20116;-83
2023/10/25 05:58:16;;;;;;;7.27;2.93;;;8.50;87.50;;;;;;5007395;28;21136;-83
2023/10/25 06:00:51;;;;;;;8.43;3.38;;;8.50;87.60;;;;;;4990297;28;20262;-83
2023/10/25 06:03:20;;;;;;;7.70;3.53;;;8.50;87.50;;;;;;4983729;28;20050;-83
2023/10/25 06:05:52;;;;;;;11.55;4.30;;;8.50;87.60;;;;;;4987794;28;20589;-83
2023/10/25 06:08:19;;;;;;;8.85;3.85;;;8.50;87.70;;;;;;4987888;28;20126;-82
2023/10/25 06:10:50;;;;;;;6.97;3.60;;;8.40;87.70;;;;;;4992883;28;20116;-82
2023/10/25 06:13:18;;;;;;;9.50;3.83;;;8.40;87.70;;;;;;4991061;28;20262;-83
2023/10/25 06:15:45;;;;;;;7.57;4.10;;;8.40;87.80;;;;;;5007225;28;20051;-83
2023/10/25 06:18:13;;;;;;;11.60;4.32;;;8.40;87.80;;;;;;5007442;28;20057;-82
2023/10/25 06:20:41;;;;;;;10.57;4.10;;;8.40;88.00;;;;;;4984556;28;20108;-83
2023/10/25 06:23:07;;;;;;;10.67;4.70;;;8.40;88.00;;;;;;4988495;28;20055;-82
2023/10/25 06:25:35;;;;;;;12.50;4.30;;;8.40;88.00;;;;;;4979604;28;21029;-83
2023/10/25 06:28:04;;;;;;;9.85;4.15;;;8.40;88.00;;;;;;5009465;28;20424;-82
2023/10/25 06:30:33;;;;;;;9.93;4.07;;;8.40;88.00;;;;;;4974220;28;20105;-83
2023/10/25 06:33:00;;;;;;;11.35;4.68;;;8.40;88.10;;;;;;5006997;28;20058;-83
2023/10/25 06:35:27;;;;;;;10.70;4.60;;;8.40;88.10;;;;;;5025356;28;20046;-83
2023/10/25 06:37:55;;;;;;;12.10;4.68;;;8.40;88.20;;;;;;4992861;28;20289;-83
2023/10/25 06:40:24;;;;;;;10.43;4.00;;;8.30;88.20;;;;;;5007938;28;20054;-83
2023/10/25 06:42:53;;;;;;;8.80;4.18;;;8.30;88.20;;;;;;5009420;28;20054;-83
2023/10/25 06:45:22;;;;;;;8.43;3.80;;;8.40;88.30;;;;;;4993183;28;20149;-83
2023/10/25 06:47:51;;;;;;;8.10;4.20;;;8.40;88.30;;;;;;5010007;28;20117;-83
2023/10/25 06:50:19;;;;;;;9.07;4.38;;;8.40;88.30;;;;;;5005924;28;20254;-83
2023/10/25 06:52:46;;;;;;;10.57;4.25;;;8.40;88.40;;;;;;5006804;28;20153;-83
2023/10/25 06:55:15;;;;;;;9.30;4.60;;;8.40;88.40;;;;;;5007251;28;20051;-80
2023/10/25 06:57:43;;;;;;;7.30;3.97;;;8.40;88.40;;;;;;4985826;28;20105;-83
2023/10/25 07:00:11;;;;;;;10.77;4.30;;;8.40;88.40;;;;;;4973828;28;20053;-83
2023/10/25 07:02:50;;;;;;;8.00;4.18;;;8.40;88.40;;;;;;4986578;28;20270;-83
2023/10/25 07:05:20;;;;;;;9.80;4.10;;;8.40;88.40;;;;;;5002739;28;20050;-84
2023/10/25 07:07:50;;;;;;;8.77;3.92;;;8.40;88.40;;;;;;5009108;28;20556;-79
2023/10/25 07:10:18;;;;;;;7.45;4.03;;;8.40;88.40;;;;;;5004911;28;20149;-81
2023/10/25 07:12:45;;;;;;;7.83;3.63;;;8.40;88.40;;;;;;5007788;28;20735;-79
2023/10/25 07:15:13;;;;;;;7.32;4.07;;;8.40;88.40;;;;;;5008696;28;20255;-83
2023/10/25 07:17:41;;;;;;;9.15;3.97;;;8.40;88.40;;;;;;4988942;28;20078;-81
2023/10/25 07:20:10;;;;;;;8.60;4.50;;;8.40;88.40;;;;;;4987747;28;20057;-81
2023/10/25 07:22:39;;;;;;;7.25;4.00;;;8.40;88.40;;;;;;4990928;28;20046;-80
2023/10/25 07:25:07;;;;;;;10.00;4.13;;;8.40;88.40;;;;;;5007970;28;20051;-81
2023/10/25 07:27:34;;;;;;;9.18;3.72;;;8.50;88.50;;;;;;5010173;28;20282;-79
2023/10/25 07:30:01;;;;;;;7.40;3.72;;;8.50;88.50;;;;;;4993071;28;20057;-82
2023/10/25 07:32:28;;;;;;;7.97;3.42;;;8.50;88.50;;;;;;5009045;28;20058;-79
2023/10/25 07:34:55;;;;;;;8.50;3.72;;;8.50;88.50;;;;;;5008869;28;20049;-80
2023/10/25 07:37:24;;;;;;;8.73;4.30;;;8.50;88.50;;;;;;5009876;28;20050;-80
2023/10/25 07:39:51;;;;;;;7.45;3.45;;;8.50;88.50;;;;;;5009465;28;20254;-82
2023/10/25 07:42:18;;;;;;;6.95;3.97;;;8.50;88.50;;;;;;5006519;28;20153;-81
2023/10/25 07:44:45;;;;;;;8.55;3.60;;;8.50;88.50;;;;;;5006571;28;20051;-81
2023/10/25 07:47:14;;;;;;;6.47;3.78;;;8.60;88.50;;;;;;5022976;28;20193;-81
2023/10/25 07:49:45;;;;;;;7.40;3.60;;;8.60;88.60;;;;;;4975116;28;20113;-80
2023/10/25 07:52:12;;;;;;;8.43;3.80;;;8.60;88.60;;;;;;5010747;28;21213;-80
2023/10/25 07:54:40;;;;;;;7.32;3.85;;;8.60;88.70;;;;;;5009255;28;20050;-80
2023/10/25 07:57:08;;;;;;;7.20;3.83;;;8.60;88.70;;;;;;5009250;28;20427;-80
2023/10/25 07:59:36;;;;;;;9.02;4.15;;;8.60;88.70;;;;;;5005571;28;20494;-79
2023/10/25 08:02:03;;;;;;;8.50;4.03;;;8.60;88.70;;;;;;4989741;28;20129;-78
2023/10/25 08:04:30;;;;;;;8.10;4.03;;;8.60;88.80;;;;;;4991038;28;20263;-76
2023/10/25 08:06:58;;;;;;;7.80;3.90;;;8.70;88.70;;;;;;5009818;28;20129;-78
2023/10/25 08:09:25;;;;;;;9.88;3.97;;;8.80;88.80;;;;;;5004086;28;20085;-79
2023/10/25 08:11:53;;;;;;;7.40;3.97;;;8.80;88.80;;;;;;5008187;28;20129;-81
2023/10/25 08:14:21;;;;;;;8.83;4.10;;;8.80;88.90;;;;;;5008531;28;20046;-83
2023/10/25 08:16:48;;;;;;;13.80;7.53;;;8.80;88.80;;;;;;4992133;28;20277;-81
2023/10/25 08:19:16;;;;;;;15.02;9.32;;;8.90;88.90;;;;;;5009808;28;20050;-86
2023/10/25 08:21:45;;;;;;;12.50;5.70;;;8.90;89.00;;;;;;4987835;28;20046;-87
2023/10/25 08:24:12;;;;;;;8.55;4.60;;;8.90;89.00;;;;;;5008874;28;20051;-84
2023/10/25 08:26:40;;;;;;;9.60;4.73;;;8.90;89.00;;;;;;5008180;28;20074;-83
2023/10/25 08:29:10;;;;;;;8.23;4.35;;;9.00;89.00;;;;;;5005433;28;20266;-84
2023/10/25 08:31:38;;;;;;;7.97;4.13;;;9.00;89.20;;;;;;4987763;28;20098;-83
2023/10/25 08:34:05;;;;;;;9.15;4.70;;;9.00;89.10;;;;;;4974291;28;20053;-83
2023/10/25 08:36:32;;;;;;;8.25;4.32;;;9.00;89.10;;;;;;5007191;28;20188;-83
2023/10/25 08:38:59;;;;;;;10.37;4.50;;;9.00;89.20;;;;;;5007061;28;20053;-84
2023/10/25 08:41:28;;;;;;;10.90;4.38;;;9.10;89.20;;;;;;5007540;28;20395;-84
2023/10/25 08:43:56;;;;;;;9.45;4.25;;;9.20;89.20;;;;;;4974389;28;20154;-85
2023/10/25 08:46:28;;;;;;;7.68;3.78;;;9.20;89.20;;;;;;4990656;28;20050;-82
2023/10/25 08:48:56;;;;;;;9.77;4.20;;;9.20;89.20;;;;;;5009477;28;20057;-85
2023/10/25 08:51:24;;;;;;;9.20;4.20;;;9.20;89.30;;;;;;5005241;28;20086;-83
2023/10/25 08:53:54;;;;;;;9.10;4.40;;;9.20;89.30;;;;;;5008097;28;21228;-83
2023/10/25 08:56:21;;;;;;;9.32;3.97;;;9.20;89.30;;;;;;5008269;28;20050;-82
2023/10/25 08:58:48;;;;;;;9.40;4.07;;;9.30;89.40;;;;;;5006654;28;20583;-83
2023/10/25 09:01:15;;;;;;;7.47;3.80;;;9.40;89.30;;;;;;5005440;28;20160;-83
2023/10/25 09:03:44;;;;;;;10.20;4.23;;;9.40;89.40;;;;;;4991117;28;20054;-83
2023/10/25 09:06:12;;;;;;;9.82;4.32;;;9.40;89.40;;;;;;5006653;28;20369;-83
2023/10/25 09:08:41;;;;;;;9.55;4.35;;;9.40;89.40;;;;;;4997431;28;20050;-84
2023/10/25 09:11:10;;;;;;;7.40;3.88;;;9.40;89.40;;;;;;4985493;28;20051;-85
2023/10/25 09:13:41;;;;;;;12.27;4.25;;;9.50;89.50;;;;;;5001875;28;20069;-85
2023/10/25 09:16:09;;;;;;;9.40;4.20;;;9.50;89.50;;;;;;5022143;28;20050;-87
2023/10/25 09:18:39;;;;;;;10.13;4.75;;;9.60;89.60;;;;;;5007096;28;20284;-83
2023/10/25 09:21:10;;;;;;;9.73;4.70;;;9.60;89.60;;;;;;4995393;28;20058;-88
2023/10/25 09:23:37;;;;;;;8.05;4.40;;;9.60;89.70;;;;;;5008630;28;20116;-83
2023/10/25 09:26:14;;;;;;;8.32;4.70;;;9.70;89.80;;;;;;4991365;28;20052;-84
2023/10/25 09:28:42;;;;;;;10.43;4.60;;;9.70;89.80;;;;;;4995482;28;20062;-84
2023/10/25 09:31:23;;;;;;;8.73;4.65;;;9.80;90.00;;;;;;5006878;28;20257;-85
2023/10/25 09:33:51;;;;;;;10.15;5.13;;;9.90;90.10;;;;;;4983532;28;20047;-84
2023/10/25 09:36:21;;;;;;;13.50;5.43;;;10.00;90.20;;;;;;5023101;28;20073;-88
2023/10/25 09:38:50;;;;;;;10.95;5.03;;;10.00;90.30;;;;;;5008204;28;20583;-82
2023/10/25 09:41:18;;;;;;;10.07;4.97;;;10.00;90.30;;;;;;5006105;28;20046;-80
2023/10/25 09:43:48;;;;;;;9.90;4.85;;;10.10;90.40;;;;;;5006518;28;20259;-83
2023/10/25 09:46:17;;;;;;;9.85;4.50;;;10.20;90.50;;;;;;5007162;28;20141;-84
2023/10/25 09:49:03;;;;;;;11.43;4.95;;;10.30;90.60;;;;;;5007300;28;20055;-82
2023/10/25 09:51:43;;;;;;;10.73;5.10;;;10.30;90.60;;;;;;5006715;28;20058;-84
2023/10/25 09:54:12;;;;;;;10.90;5.40;;;10.40;90.70;;;;;;4973348;28;20050;-84
2023/10/25 09:56:42;;;;;;;17.50;9.95;;;10.50;90.70;;;;;;5006350;28;20293;-83
2023/10/25 09:59:43;;;;;;;15.18;8.68;;;10.50;90.70;;;;;;4993076;28;20504;-88
2023/10/25 10:06:30;;;;;;;7.30;4.30;;;10.70;90.70;;;;;;5011306;28;20049;-89
2023/10/25 10:09:11;;;;;;;12.27;4.60;;;10.80;90.60;;;;;;5000819;28;20104;-89
2023/10/25 10:11:44;;;;;;;8.85;4.43;;;10.80;90.50;;;;;;4983249;28;20285;-83
2023/10/25 10:14:27;;;;;;;9.77;4.72;;;10.90;90.50;;;;;;5006001;28;20149;-82
2023/10/25 10:16:58;;;;;;;10.60;4.30;;;11.00;90.40;;;;;;5000427;28;20537;-87
2023/10/25 10:19:25;;;;;;;8.23;4.18;;;11.00;90.50;;;;;;4985455;28;20093;-82
2023/10/25 10:22:04;;;;;;;9.07;4.20;;;11.10;90.40;;;;;;4991155;28;20137;-88
2023/10/25 10:24:58;;;;;;;8.88;4.00;;;11.10;90.40;;;;;;4974543;28;20278;-83
2023/10/25 10:27:27;;;;;;;8.55;3.80;;;11.20;90.20;;;;;;4974495;28;20061;-84
2023/10/25 10:29:55;;;;;;;8.40;4.07;;;11.30;90.10;;;;;;4989669;28;20175;-85
2023/10/25 10:32:22;;;;;;;8.85;4.50;;;11.30;90.00;;;;;;4988879;28;20114;-85
2023/10/25 10:34:52;;;;;;;8.30;3.80;;;11.30;89.80;;;;;;4996576;28;20491;-83
2023/10/25 10:37:22;;;;;;;7.85;4.32;;;11.40;89.70;;;;;;4982885;28;20262;-82
2023/10/25 10:40:15;;;;;;;10.73;4.00;;;11.40;89.60;;;;;;5006426;28;20050;-84
2023/10/25 10:42:43;;;;;;;8.68;3.50;;;11.40;89.60;;;;;;5002013;28;20054;-83
2023/10/25 10:45:16;;;;;;;9.57;4.00;;;11.50;89.50;;;;;;4988549;28;20129;-83
2023/10/25 10:47:44;;;;;;;6.87;3.60;;;11.50;89.40;;;;;;5007171;28;20819;-79
2023/10/25 10:50:13;;;;;;;6.82;3.83;;;11.50;89.40;;;;;;4969765;28;20294;-79
2023/10/25 10:52:41;;;;;;;9.80;3.97;;;11.50;89.30;;;;;;4984611;28;20500;-82
2023/10/25 10:55:10;;;;;;;8.68;3.92;;;11.50;89.20;;;;;;5005549;28;20068;-83
2023/10/25 10:57:38;;;;;;;7.85;3.78;;;11.50;89.00;;;;;;4989453;28;20161;-85
2023/10/25 11:00:08;;;;;;;7.57;3.33;;;11.50;89.00;;;;;;5007284;28;20051;-86
2023/10/25 11:02:37;;;;;;;7.35;3.45;;;11.60;88.80;;;;;;5007257;28;20732;-81
2023/10/25 11:05:04;;;;;;;8.73;3.60;;;11.60;88.50;;;;;;5007091;28;20062;-82
2023/10/25 11:07:31;;;;;;;7.30;3.60;;;11.60;88.50;;;;;;5006046;28;20050;-84
2023/10/25 11:10:05;;;;;;;7.03;3.70;;;11.60;88.30;;;;;;5008514;28;20050;-90
2023/10/25 11:12:32;;;;;;;6.50;3.20;;;11.60;88.20;;;;;;4995422;28;20053;-87
2023/10/25 11:15:04;;;;;;;8.30;3.63;;;11.60;88.10;;;;;;4994626;28;20301;-87
2023/10/25 11:17:31;;;;;;;6.57;3.55;;;11.60;88.00;;;;;;5010628;28;20734;-87
2023/10/25 11:19:59;;;;;;;8.38;3.60;;;11.60;88.00;;;;;;5002846;28;20588;-84
2023/10/25 11:22:26;;;;;;;8.93;3.33;;;11.60;87.90;;;;;;4992957;28;20425;-82
2023/10/25 11:24:54;;;;;;;6.53;3.23;;;11.60;87.80;;;;;;4973354;28;20059;-85
2023/10/25 11:27:21;;;;;;;7.30;3.38;;;11.60;87.80;;;;;;4979759;28;21139;-86
2023/10/25 11:29:50;;;;;;;9.50;3.65;;;11.60;87.70;;;;;;5014582;28;20050;-87
2023/10/25 11:32:18;;;;;;;43.88;26.20;;;11.60;87.70;;;;;;5010880;28;20050;-82
2023/10/25 11:34:49;;;;;;;11.75;6.70;;;11.60;87.50;;;;;;4992484;28;20058;-84
2023/10/25 11:37:19;;;;;;;7.13;3.60;;;11.70;87.70;;;;;;5009244;28;20046;-83
2023/10/25 11:39:55;;;;;;;8.23;3.67;;;11.60;87.60;;;;;;5026322;28;20285;-84
2023/10/25 11:42:22;;;;;;;6.25;3.30;;;11.70;87.60;;;;;;5024247;28;20105;-83
2023/10/25 11:44:50;;;;;;;7.18;3.33;;;11.70;87.50;;;;;;4993277;28;20089;-83
2023/10/25 11:47:21;;;;;;;8.18;3.60;;;11.70;87.50;;;;;;4991582;28;20058;-83
2023/10/25 11:49:52;;;;;;;7.57;3.60;;;11.70;87.40;;;;;;5008864;28;20069;-83
2023/10/25 11:52:22;;;;;;;7.05;3.33;;;11.70;87.50;;;;;;5008848;28;21009;-84
2023/10/25 11:54:54;;;;;;;7.53;3.40;;;11.70;87.40;;;;;;4991663;28;20050;-83
2023/10/25 11:57:23;;;;;;;5.20;2.80;;;11.70;87.30;;;;;;5008071;28;20054;-83
2023/10/25 11:59:50;;;;;;;8.23;3.13;;;11.70;87.30;;;;;;5008432;28;20129;-83
2023/10/25 12:02:19;;;;;;;6.60;3.30;;;11.70;87.20;;;;;;5007520;28;20054;-83
2023/10/25 12:04:47;;;;;;;7.68;3.00;;;11.70;87.20;;;;;;5007960;28;20369;-83
2023/10/25 12:07:15;;;;;;;6.43;3.00;;;11.70;87.20;;;;;;4991392;28;20057;-83
2023/10/25 12:09:42;;;;;;;7.35;3.00;;;11.70;87.30;;;;;;5008859;28;20165;-84
2023/10/25 12:12:10;;;;;;;8.88;3.45;;;11.70;87.20;;;;;;5009700;28;20586;-83
2023/10/25 12:15:05;;;;;;;8.40;3.20;;;11.70;87.10;;;;;;4990197;28;20051;-84
2023/10/25 12:17:34;;;;;;;7.40;3.30;;;11.70;87.10;;;;;;4991744;28;20251;-84
2023/10/25 12:20:01;;;;;;;8.57;3.10;;;11.70;86.90;;;;;;5009133;28;20054;-83
2023/10/25 12:22:29;;;;;;;7.07;2.78;;;11.70;86.90;;;;;;5009080;28;20050;-83
2023/10/25 12:24:57;;;;;;;7.70;3.08;;;11.70;86.90;;;;;;5008012;28;20623;-83
2023/10/25 12:27:24;;;;;;;6.87;3.10;;;11.70;86.90;;;;;;4992334;28;20042;-84
2023/10/25 12:29:51;;;;;;;7.82;3.45;;;11.70;86.90;;;;;;5005676;28;20393;-83
2023/10/25 12:32:21;;;;;;;6.03;2.78;;;11.70;86.90;;;;;;5008857;28;20050;-83
2023/10/25 12:34:50;;;;;;;7.68;3.20;;;11.70;86.90;;;;;;5008711;28;20061;-84
2023/10/25 12:37:17;;;;;;;8.35;3.00;;;11.70;87.00;;;;;;5009082;28;20056;-84
2023/10/25 12:39:44;;;;;;;7.53;3.00;;;11.70;87.00;;;;;;5008473;28;20839;-83
2023/10/25 12:42:11;;;;;;;8.48;3.17;;;11.70;86.90;;;;;;5008197;28;20254;-83
2023/10/25 12:44:38;;;;;;;7.38;3.30;;;11.70;86.90;;;;;;5008112;28;20490;-83
2023/10/25 12:47:06;;;;;;;6.60;3.03;;;11.70;87.00;;;;;;5008637;28;20130;-83
2023/10/25 12:49:33;;;;;;;7.32;3.15;;;11.70;87.00;;;;;;4992076;28;20133;-84
2023/10/25 12:52:04;;;;;;;8.07;3.30;;;11.70;87.00;;;;;;5008648;28;20062;-83
2023/10/25 12:54:31;;;;;;;6.75;3.22;;;11.70;86.90;;;;;;4995349;28;20266;-82
2023/10/25 12:56:58;;;;;;;6.07;3.03;;;11.80;87.10;;;;;;4992211;28;20591;-83
2023/10/25 12:59:26;;;;;;;6.22;2.65;;;11.80;87.00;;;;;;4992190;28;20513;-83
2023/10/25 13:01:53;;;;;;;6.45;2.92;;;11.80;86.90;;;;;;5007453;28;20046;-83
2023/10/25 13:04:20;;;;;;;7.87;2.97;;;11.80;86.80;;;;;;5008505;28;20062;-83